createdAt,value
2018-09-11T00:00:55.545Z,101001.16
2018-09-11T00:02:02.843Z,100998.34
2018-09-11T00:03:09.105Z,101005.10
2018-09-11T00:04:15.442Z,101010.89
2018-09-11T00:05:21.729Z,101006.16
2018-09-11T00:06:28.029Z,101000.95
2018-09-11T00:07:34.155Z,100999.55
2018-09-11T00:08:39.929Z,100999.55
2018-09-11T00:09:46.417Z,101000.57
2018-09-11T00:10:52.763Z,100998.42
2018-09-11T00:12:00.208Z,100998.05
2018-09-11T00:13:05.977Z,100994.34
2018-09-11T00:14:12.044Z,101000.66
2018-09-11T00:15:18.574Z,101001.69
2018-09-11T00:16:25.348Z,101000.40
2018-09-11T00:17:31.901Z,100998.12
2018-09-11T00:18:37.836Z,100996.88
2018-09-11T00:19:44.413Z,100992.50
2018-09-11T00:20:50.850Z,100992.67
2018-09-11T00:21:56.791Z,100996.95
2018-09-11T00:23:03.168Z,100989.59
2018-09-11T00:24:09.105Z,100993.36
2018-09-11T00:25:15.549Z,100995.28
2018-09-11T00:26:21.626Z,100994.34
2018-09-11T00:27:27.699Z,100989.15
2018-09-11T00:28:33.952Z,100991.16
2018-09-11T00:29:40.379Z,100988.56
2018-09-11T00:30:46.329Z,100992.45
2018-09-11T00:31:52.398Z,100992.76
2018-09-11T00:32:58.835Z,100990.48
2018-09-11T00:34:05.127Z,100993.27
2018-09-11T00:35:11.420Z,101000.70
2018-09-11T00:36:17.773Z,101004.68
2018-09-11T00:37:24.084Z,101000.13
2018-09-11T00:38:30.409Z,101010.96
2018-09-11T00:39:36.346Z,101009.39
2018-09-11T00:40:43.525Z,101016.97
2018-09-11T00:41:49.585Z,101008.65
2018-09-11T00:42:56.009Z,101009.77
2018-09-11T00:44:02.177Z,101011.14
2018-09-11T00:45:07.744Z,101013.45
2018-09-11T00:46:14.041Z,101015.09
2018-09-11T00:47:20.165Z,101014.97
2018-09-11T00:48:26.176Z,101016.95
2018-09-11T00:49:32.463Z,101019.08
2018-09-11T00:50:38.774Z,101007.09
2018-09-11T00:51:45.160Z,101008.80
2018-09-11T00:52:51.672Z,101006.53
2018-09-11T00:53:57.754Z,101011.59
2018-09-11T00:55:04.125Z,101011.85
2018-09-11T00:56:10.456Z,101010.61
2018-09-11T00:57:16.796Z,101007.94
2018-09-11T00:58:23.044Z,101013.03
2018-09-11T00:59:29.373Z,101016.03
2018-09-11T01:00:35.702Z,101014.16
2018-09-11T01:01:40.615Z,101015.30
2018-09-11T01:02:47.020Z,101014.14
2018-09-11T01:03:53.332Z,101010.25
2018-09-11T01:04:59.612Z,101009.09
2018-09-11T01:06:05.953Z,101003.16
2018-09-11T01:07:12.220Z,101009.73
2018-09-11T01:08:18.581Z,101005.67
2018-09-11T01:09:25.072Z,101004.08
2018-09-11T01:10:31.509Z,101016.19
2018-09-11T01:11:39.420Z,101012.80
2018-09-11T01:12:45.876Z,101012.41
2018-09-11T01:13:52.248Z,101008.29
2018-09-11T01:14:58.226Z,101011.42
2018-09-11T01:16:04.393Z,101017.40
2018-09-11T01:17:10.772Z,101007.09
2018-09-11T01:18:17.880Z,101014.05
2018-09-11T01:19:24.957Z,101011.67
2018-09-11T01:20:31.235Z,101014.73
2018-09-11T01:21:37.587Z,101010.31
2018-09-11T01:22:43.891Z,101013.63
2018-09-11T01:23:50.305Z,101018.46
2018-09-11T01:24:56.356Z,101009.80
2018-09-11T01:26:02.936Z,101014.72
2018-09-11T01:27:08.957Z,101007.89
2018-09-11T01:28:15.673Z,101008.56
2018-09-11T01:29:21.991Z,101009.66
2018-09-11T01:30:28.281Z,101008.33
2018-09-11T01:31:34.212Z,101015.39
2018-09-11T01:32:40.605Z,101015.70
2018-09-11T01:33:46.917Z,101014.18
2018-09-11T01:34:53.211Z,101014.41
2018-09-11T01:35:59.277Z,101010.85
2018-09-11T01:37:05.657Z,101009.60
2018-09-11T01:38:11.985Z,101009.98
2018-09-11T01:39:18.301Z,101006.05
2018-09-11T01:40:24.492Z,101005.14
2018-09-11T01:41:30.770Z,101005.03
2018-09-11T01:42:37.060Z,101007.00
2018-09-11T01:43:43.427Z,101012.50
2018-09-11T01:44:50.424Z,101007.84
2018-09-11T01:45:56.479Z,101007.59
2018-09-11T01:47:02.858Z,101015.64
2018-09-11T01:48:09.197Z,101005.03
2018-09-11T01:49:15.560Z,101008.62
2018-09-11T01:50:21.862Z,101001.14
2018-09-11T01:51:28.273Z,100999.80
2018-09-11T01:52:34.620Z,101002.91
2018-09-11T01:53:40.747Z,100998.09
2018-09-11T01:54:47.023Z,100993.64
2018-09-11T01:55:53.411Z,100996.05
2018-09-11T01:56:59.764Z,100995.52
2018-09-11T01:58:06.147Z,100987.98
2018-09-11T01:59:12.476Z,100992.60
2018-09-11T02:00:19.443Z,100992.05
2018-09-11T02:01:25.816Z,100984.09
2018-09-11T02:02:32.133Z,100988.56
2018-09-11T02:03:39.105Z,100987.84
2018-09-11T02:04:45.448Z,100982.89
2018-09-11T02:05:51.790Z,100987.42
2018-09-11T02:06:58.104Z,100981.42
2018-09-11T02:08:05.336Z,100986.00
2018-09-11T02:09:11.683Z,100980.88
2018-09-11T02:10:18.783Z,100983.06
2018-09-11T02:11:24.533Z,100988.79
2018-09-11T02:12:30.562Z,100989.86
2018-09-11T02:13:37.569Z,100981.53
2018-09-11T02:14:44.987Z,100985.41
2018-09-11T02:15:50.668Z,100988.15
2018-09-11T02:16:57.039Z,100981.86
2018-09-11T02:18:03.116Z,100981.05
2018-09-11T02:19:09.510Z,100983.31
2018-09-11T02:20:15.535Z,100976.63
2018-09-11T02:21:21.884Z,100987.62
2018-09-11T02:22:27.990Z,100980.92
2018-09-11T02:23:34.443Z,100983.93
2018-09-11T02:24:40.529Z,100978.08
2018-09-11T02:25:46.616Z,100975.89
2018-09-11T02:26:52.937Z,100971.84
2018-09-11T02:27:59.534Z,100976.49
2018-09-11T02:29:05.665Z,100979.61
2018-09-11T02:30:12.076Z,100978.60
2018-09-11T02:31:18.968Z,100976.02
2018-09-11T02:32:25.187Z,100981.45
2018-09-11T02:33:31.669Z,100979.70
2018-09-11T02:34:37.931Z,100974.50
2018-09-11T02:35:44.370Z,100979.61
2018-09-11T02:36:50.915Z,100973.26
2018-09-11T02:37:57.176Z,100969.63
2018-09-11T02:39:02.928Z,100967.62
2018-09-11T02:40:09.304Z,100964.39
2018-09-11T02:41:15.733Z,100963.66
2018-09-11T02:42:22.024Z,100962.45
2018-09-11T02:43:28.153Z,100958.20
2018-09-11T02:44:34.432Z,100956.55
2018-09-11T02:45:41.460Z,100958.47
2018-09-11T02:46:47.881Z,100954.06
2018-09-11T02:47:54.830Z,100951.02
2018-09-11T02:49:02.632Z,100952.23
2018-09-11T02:50:08.403Z,100951.53
2018-09-11T02:51:14.771Z,100953.09
2018-09-11T02:52:20.893Z,100952.03
2018-09-11T02:53:27.173Z,100955.55
2018-09-11T02:54:33.539Z,100952.23
2018-09-11T02:55:39.856Z,100952.85
2018-09-11T02:56:46.112Z,100948.45
2018-09-11T02:57:53.073Z,100953.98
2018-09-11T02:58:59.503Z,100951.25
2018-09-11T03:00:05.434Z,100952.88
2018-09-11T03:01:11.772Z,100958.05
2018-09-11T03:02:18.160Z,100955.03
2018-09-11T03:03:25.498Z,100954.45
2018-09-11T03:04:31.827Z,100958.73
2018-09-11T03:05:38.149Z,100958.69
2018-09-11T03:06:44.444Z,100962.67
2018-09-11T03:07:50.772Z,100965.36
2018-09-11T03:08:57.133Z,100962.13
2018-09-11T03:10:03.666Z,100965.61
2018-09-11T03:11:09.804Z,100966.50
2018-09-11T03:12:16.182Z,100969.43
2018-09-11T03:13:22.548Z,100965.41
2018-09-11T03:14:34.411Z,100962.17
2018-09-11T03:15:41.212Z,100964.36
2018-09-11T03:16:47.645Z,100960.23
2018-09-11T03:17:53.924Z,100961.16
2018-09-11T03:19:00.359Z,100957.96
2018-09-11T03:20:06.257Z,100962.37
2018-09-11T03:21:12.641Z,100958.34
2018-09-11T03:22:18.991Z,100960.18
2018-09-11T03:23:25.124Z,100965.16
2018-09-11T03:24:31.441Z,100961.19
2018-09-11T03:25:37.700Z,100961.51
2018-09-11T03:26:43.698Z,100967.28
2018-09-11T03:27:50.011Z,100962.37
2018-09-11T03:28:56.561Z,100963.08
2018-09-11T03:30:02.963Z,100963.70
2018-09-11T03:31:09.425Z,100965.80
2018-09-11T03:32:15.764Z,100964.44
2018-09-11T03:33:22.851Z,100963.14
2018-09-11T03:34:29.863Z,100970.52
2018-09-11T03:35:35.905Z,100963.38
2018-09-11T03:36:42.357Z,100962.83
2018-09-11T03:37:48.686Z,100967.91
2018-09-11T03:38:54.979Z,100963.78
2018-09-11T03:40:01.612Z,100958.90
2018-09-11T03:41:08.748Z,100958.86
2018-09-11T03:42:15.094Z,100959.56
2018-09-11T03:43:21.079Z,100958.34
2018-09-11T03:44:27.504Z,100960.53
2018-09-11T03:45:33.948Z,100962.33
2018-09-11T03:46:40.557Z,100962.75
2018-09-11T03:47:46.959Z,100966.69
2018-09-11T03:48:52.992Z,100963.30
2018-09-11T03:49:59.096Z,100962.45
2018-09-11T03:51:04.805Z,100966.39
2018-09-11T03:52:11.189Z,100967.52
2018-09-11T03:53:17.279Z,100967.92
2018-09-11T03:54:25.384Z,100966.90
2018-09-11T03:55:33.301Z,100962.69
2018-09-11T03:56:42.419Z,100961.39
2018-09-11T03:57:50.846Z,100962.45
2018-09-11T03:58:58.061Z,100969.23
2018-09-11T04:00:07.714Z,100965.87
2018-09-11T04:01:15.581Z,100968.48
2018-09-11T04:02:23.032Z,100966.84
2018-09-11T04:03:30.981Z,100968.64
2018-09-11T04:04:39.531Z,100966.72
2018-09-11T04:05:47.992Z,100966.63
2018-09-11T04:06:55.661Z,100970.30
2018-09-11T04:08:05.221Z,100964.73
2018-09-11T04:09:13.046Z,100965.87
2018-09-11T04:10:19.780Z,100962.53
2018-09-11T04:11:26.069Z,100967.62
2018-09-11T04:12:32.459Z,100967.49
2018-09-11T04:13:38.835Z,100969.25
2018-09-11T04:14:45.250Z,100966.11
2018-09-11T04:15:51.664Z,100973.02
2018-09-11T04:16:57.944Z,100970.64
2018-09-11T04:18:04.231Z,100969.11
2018-09-11T04:19:10.552Z,100971.42
2018-09-11T04:20:16.913Z,100968.45
2018-09-11T04:21:22.976Z,100978.71
2018-09-11T04:22:29.150Z,100975.20
2018-09-11T04:23:35.528Z,100985.63
2018-09-11T04:24:41.849Z,100978.44
2018-09-11T04:25:48.780Z,100987.97
2018-09-11T04:26:55.360Z,100984.02
2018-09-11T04:28:01.963Z,100984.77
2018-09-11T04:29:08.799Z,100982.89
2018-09-11T04:30:15.852Z,100979.80
2018-09-11T04:31:21.956Z,100986.80
2018-09-11T04:32:28.235Z,100985.24
2018-09-11T04:33:34.372Z,100981.33
2018-09-11T04:34:40.770Z,100989.47
2018-09-11T04:35:47.126Z,100985.73
2018-09-11T04:36:53.139Z,100986.45
2018-09-11T04:38:00.223Z,100991.02
2018-09-11T04:39:05.790Z,100988.32
2018-09-11T04:40:12.250Z,100988.47
2018-09-11T04:41:18.356Z,100989.56
2018-09-11T04:42:24.370Z,100987.72
2018-09-11T04:43:30.653Z,100990.34
2018-09-11T04:44:36.962Z,100995.31
2018-09-11T04:45:43.954Z,100995.56
2018-09-11T04:46:50.196Z,100995.78
2018-09-11T04:47:56.330Z,100991.22
2018-09-11T04:49:03.403Z,100996.83
2018-09-11T04:50:09.885Z,101000.13
2018-09-11T04:51:16.164Z,101006.11
2018-09-11T04:52:22.234Z,101007.36
2018-09-11T04:53:28.508Z,101003.28
2018-09-11T04:54:34.926Z,101005.75
2018-09-11T04:55:41.249Z,101007.15
2018-09-11T04:56:47.524Z,101011.23
2018-09-11T04:57:53.832Z,101007.37
2018-09-11T04:59:00.195Z,101005.25
2018-09-11T05:00:06.467Z,101004.32
2018-09-11T05:01:12.847Z,101008.19
2018-09-11T05:02:19.180Z,101003.14
2018-09-11T05:03:25.483Z,101004.29
2018-09-11T05:04:31.905Z,101010.34
2018-09-11T05:05:38.245Z,101007.87
2018-09-11T05:06:44.522Z,101013.05
2018-09-11T05:07:50.603Z,101013.30
2018-09-11T05:08:57.051Z,101013.23
2018-09-11T05:10:03.244Z,101013.77
2018-09-11T05:11:09.816Z,101008.44
2018-09-11T05:12:16.119Z,101010.78
2018-09-11T05:13:21.835Z,101012.67
2018-09-11T05:14:28.202Z,101013.85
2018-09-11T05:15:34.510Z,101014.67
2018-09-11T05:16:40.968Z,101018.67
2018-09-11T05:17:47.598Z,101015.98
2018-09-11T05:18:54.034Z,101018.72
2018-09-11T05:20:00.407Z,101016.66
2018-09-11T05:21:06.758Z,101015.84
2018-09-11T05:22:13.901Z,101018.31
2018-09-11T05:23:20.151Z,101021.78
2018-09-11T05:24:26.813Z,101019.60
2018-09-11T05:25:34.059Z,101012.48
2018-09-11T05:26:40.412Z,101014.38
2018-09-11T05:27:47.029Z,101018.28
2018-09-11T05:28:53.637Z,101013.48
2018-09-11T05:30:00.152Z,101016.98
2018-09-11T05:31:07.065Z,101019.46
2018-09-11T05:32:13.594Z,101019.17
2018-09-11T05:33:20.199Z,101017.56
2018-09-11T05:34:26.677Z,101019.17
2018-09-11T05:35:34.710Z,101018.88
2018-09-11T05:36:41.283Z,101017.06
2018-09-11T05:37:47.301Z,101018.00
2018-09-11T05:38:54.825Z,101015.45
2018-09-11T05:40:00.929Z,101015.42
2018-09-11T05:41:07.425Z,101012.09
2018-09-11T05:42:13.783Z,101019.06
2018-09-11T05:43:20.177Z,101014.27
2018-09-11T05:44:26.503Z,101010.23
2018-09-11T05:45:32.466Z,101015.59
2018-09-11T05:46:38.974Z,101010.00
2018-09-11T05:47:45.239Z,101016.95
2018-09-11T05:48:51.544Z,101013.52
2018-09-11T05:49:57.670Z,101012.38
2018-09-11T05:51:03.921Z,101013.34
2018-09-11T05:52:10.297Z,101013.99
2018-09-11T05:53:16.610Z,101013.13
2018-09-11T05:54:22.676Z,101011.88
2018-09-11T05:55:29.096Z,101016.31
2018-09-11T05:56:36.531Z,101017.78
2018-09-11T05:57:44.885Z,101014.78
2018-09-11T05:58:53.426Z,101011.30
2018-09-11T06:00:00.767Z,101012.79
2018-09-11T06:01:09.284Z,101004.28
2018-09-11T06:02:16.168Z,101006.72
2018-09-11T06:03:24.254Z,101006.34
2018-09-11T06:04:30.756Z,101003.49
2018-09-11T06:05:37.112Z,101002.36
2018-09-11T06:06:43.753Z,101004.47
2018-09-11T06:07:50.140Z,101002.05
2018-09-11T06:08:56.537Z,101003.37
2018-09-11T06:10:02.893Z,101003.64
2018-09-11T06:11:09.223Z,101000.09
2018-09-11T06:12:15.577Z,101003.18
2018-09-11T06:13:22.633Z,101003.80
2018-09-11T06:14:29.005Z,101005.12
2018-09-11T06:15:35.337Z,101002.61
2018-09-11T06:16:41.681Z,101000.77
2018-09-11T06:17:47.996Z,100997.40
2018-09-11T06:18:53.933Z,100998.35
2018-09-11T06:20:00.365Z,100998.58
2018-09-11T06:21:06.969Z,100998.09
2018-09-11T06:22:13.300Z,100998.40
2018-09-11T06:23:20.964Z,100998.67
2018-09-11T06:24:27.376Z,101000.48
2018-09-11T06:25:33.815Z,101005.19
2018-09-11T06:26:40.412Z,100999.57
2018-09-11T06:27:46.882Z,100991.91
2018-09-11T06:28:53.343Z,100994.05
2018-09-11T06:29:59.618Z,100993.16
2018-09-11T06:31:05.249Z,100990.81
2018-09-11T06:32:11.682Z,100988.09
2018-09-11T06:33:18.045Z,100994.22
2018-09-11T06:34:24.373Z,100996.06
2018-09-11T06:35:30.727Z,100995.12
2018-09-11T06:36:36.973Z,101000.92
2018-09-11T06:37:43.344Z,100992.68
2018-09-11T06:38:49.598Z,101000.91
2018-09-11T06:39:55.684Z,100997.86
2018-09-11T06:41:01.773Z,100998.59
2018-09-11T06:42:08.181Z,100991.09
2018-09-11T06:43:14.256Z,100995.23
2018-09-11T06:44:20.669Z,100991.45
2018-09-11T06:45:26.965Z,100991.31
2018-09-11T06:46:33.335Z,100995.94
2018-09-11T06:47:40.281Z,100993.44
2018-09-11T06:48:46.537Z,100988.17
2018-09-11T06:49:52.826Z,100986.85
2018-09-11T06:50:59.173Z,100987.27
2018-09-11T06:52:05.139Z,100985.94
2018-09-11T06:53:11.560Z,100981.44
2018-09-11T06:54:17.900Z,100983.70
2018-09-11T06:55:24.187Z,100989.94
2018-09-11T06:56:30.659Z,100989.45
2018-09-11T06:57:37.528Z,100991.92
2018-09-11T06:58:43.749Z,100985.48
2018-09-11T06:59:50.293Z,100984.27
2018-09-11T07:00:56.561Z,100979.11
2018-09-11T07:02:03.117Z,100981.67
2018-09-11T07:03:09.615Z,100981.95
2018-09-11T07:04:15.833Z,100978.49
2018-09-11T07:05:22.124Z,100977.27
2018-09-11T07:06:28.069Z,100977.66
2018-09-11T07:07:34.489Z,100981.50
2018-09-11T07:08:40.866Z,100975.97
2018-09-11T07:09:47.160Z,100977.69
2018-09-11T07:10:53.628Z,100978.88
2018-09-11T07:11:59.941Z,100977.38
2018-09-11T07:13:05.533Z,100977.80
2018-09-11T07:14:11.844Z,100969.33
2018-09-11T07:15:18.160Z,100962.09
2018-09-11T07:16:25.268Z,100973.06
2018-09-11T07:17:31.695Z,100964.58
2018-09-11T07:18:37.960Z,100971.20
2018-09-11T07:19:44.301Z,100977.09
2018-09-11T07:20:50.789Z,100975.39
2018-09-11T07:21:56.845Z,100973.82
2018-09-11T07:23:03.632Z,100973.05
2018-09-11T07:24:09.665Z,100975.48
2018-09-11T07:25:16.040Z,100969.05
2018-09-11T07:26:22.369Z,100977.14
2018-09-11T07:27:29.266Z,100971.10
2018-09-11T07:28:35.740Z,100973.67
2018-09-11T07:29:41.765Z,100972.09
2018-09-11T07:30:48.102Z,100972.70
2018-09-11T07:31:54.422Z,100968.14
2018-09-11T07:33:00.779Z,100974.55
2018-09-11T07:34:07.025Z,100972.28
2018-09-11T07:35:13.354Z,100971.42
2018-09-11T07:36:19.786Z,100973.38
2018-09-11T07:37:26.447Z,100969.08
2018-09-11T07:38:32.704Z,100975.00
2018-09-11T07:39:39.128Z,100973.21
2018-09-11T07:40:45.429Z,100967.74
2018-09-11T07:41:51.771Z,100963.13
2018-09-11T07:42:58.077Z,100965.37
2018-09-11T07:44:04.061Z,100966.09
2018-09-11T07:45:10.444Z,100962.45
2018-09-11T07:46:16.822Z,100960.83
2018-09-11T07:47:23.146Z,100966.53
2018-09-11T07:48:29.348Z,100962.83
2018-09-11T07:49:35.632Z,100952.39
2018-09-11T07:50:41.606Z,100953.42
2018-09-11T07:51:48.072Z,100952.53
2018-09-11T07:52:54.397Z,100951.77
2018-09-11T07:54:00.982Z,100948.44
2018-09-11T07:55:06.938Z,100953.17
2018-09-11T07:56:12.884Z,100959.78
2018-09-11T07:57:19.218Z,100953.09
2018-09-11T07:58:25.408Z,100946.37
2018-09-11T07:59:31.721Z,100948.79
2018-09-11T08:00:37.820Z,100956.95
2018-09-11T08:01:43.794Z,100943.11
2018-09-11T08:02:50.132Z,100948.08
2018-09-11T08:03:56.214Z,100942.42
2018-09-11T08:05:02.638Z,100950.78
2018-09-11T08:06:09.043Z,100949.52
2018-09-11T08:07:15.508Z,100947.35
2018-09-11T08:08:21.799Z,100938.72
2018-09-11T08:09:28.625Z,100947.83
2018-09-11T08:10:35.885Z,100954.36
2018-09-11T08:11:42.312Z,100953.21
2018-09-11T08:12:48.787Z,100951.45
2018-09-11T08:13:54.463Z,100954.06
2018-09-11T08:15:00.806Z,100947.98
2018-09-11T08:16:07.135Z,100951.02
2018-09-11T08:17:13.474Z,100950.50
2018-09-11T08:18:19.891Z,100958.12
2018-09-11T08:19:26.122Z,100956.91
2018-09-11T08:20:32.369Z,100954.27
2018-09-11T08:21:38.637Z,100953.24
2018-09-11T08:22:44.869Z,100954.89
2018-09-11T08:23:51.084Z,100950.72
2018-09-11T08:24:58.464Z,100950.52
2018-09-11T08:26:04.947Z,100956.03
2018-09-11T08:27:11.278Z,100949.98
2018-09-11T08:28:17.523Z,100952.75
2018-09-11T08:29:23.636Z,100949.11
2018-09-11T08:30:29.797Z,100945.90
2018-09-11T08:31:36.201Z,100953.52
2018-09-11T08:32:42.879Z,100955.48
2018-09-11T08:33:49.248Z,100960.57
2018-09-11T08:35:03.011Z,100953.22
2018-09-11T08:36:20.205Z,100956.69
2018-09-11T08:37:38.551Z,100957.05
2018-09-11T08:38:57.833Z,100958.83
2018-09-11T08:40:17.156Z,100957.23
2018-09-11T08:41:39.574Z,100961.70
2018-09-11T08:42:59.928Z,100963.56
2018-09-11T08:44:22.292Z,100966.77
2018-09-11T08:45:41.907Z,100963.91
2018-09-11T08:46:58.182Z,100961.56
2018-09-11T08:48:04.780Z,100965.22
2018-09-11T08:49:11.144Z,100960.08
2018-09-11T08:50:17.033Z,100969.37
2018-09-11T08:51:23.203Z,100955.27
2018-09-11T08:52:29.459Z,100955.96
2018-09-11T08:53:35.893Z,100960.51
2018-09-11T08:54:42.400Z,100957.20
2018-09-11T08:55:48.827Z,100957.48
2018-09-11T08:56:55.089Z,100948.70
2018-09-11T08:58:01.345Z,100953.09
2018-09-11T08:59:07.653Z,100946.00
2018-09-11T09:00:13.529Z,100947.81
2018-09-11T09:01:19.880Z,100939.20
2018-09-11T09:02:26.340Z,100942.78
2018-09-11T09:03:32.558Z,100943.02
2018-09-11T09:04:39.364Z,100943.22
2018-09-11T09:05:45.732Z,100938.14
2018-09-11T09:06:51.969Z,100936.00
2018-09-11T09:07:58.531Z,100932.58
2018-09-11T09:09:04.174Z,100931.44
2018-09-11T09:10:09.987Z,100931.53
2018-09-11T09:11:16.393Z,100929.77
2018-09-11T09:12:22.719Z,100924.49
2018-09-11T09:13:29.210Z,100925.77
2018-09-11T09:14:35.580Z,100925.83
2018-09-11T09:15:41.872Z,100920.33
2018-09-11T09:16:48.441Z,100927.44
2018-09-11T09:17:54.786Z,100923.97
2018-09-11T09:19:01.038Z,100923.12
2018-09-11T09:20:06.916Z,100909.91
2018-09-11T09:21:13.149Z,100921.50
2018-09-11T09:22:29.056Z,100924.11
2018-09-11T09:23:47.883Z,100918.02
2018-09-11T09:25:05.697Z,100918.33
2018-09-11T09:26:16.871Z,100920.40
2018-09-11T09:27:23.258Z,100915.32
2018-09-11T09:28:29.716Z,100917.52
2018-09-11T09:29:36.172Z,100912.63
2018-09-11T09:30:42.448Z,100928.78
2018-09-11T09:31:48.763Z,100919.72
2018-09-11T09:32:55.048Z,100918.97
2018-09-11T09:34:01.310Z,100914.08
2018-09-11T09:35:06.868Z,100924.27
2018-09-11T09:36:13.303Z,100906.80
2018-09-11T09:37:19.387Z,100916.85
2018-09-11T09:38:25.846Z,100912.63
2018-09-11T09:39:32.149Z,100918.19
2018-09-11T09:40:38.396Z,100919.84
2018-09-11T09:41:44.661Z,100921.03
2018-09-11T09:42:50.769Z,100919.88
2018-09-11T09:43:57.185Z,100912.42
2018-09-11T09:45:03.321Z,100913.12
2018-09-11T09:46:09.724Z,100907.13
2018-09-11T09:47:16.137Z,100919.81
2018-09-11T09:48:22.475Z,100912.78
2018-09-11T09:49:28.776Z,100907.23
2018-09-11T09:50:34.709Z,100910.02
2018-09-11T09:51:41.154Z,100910.95
2018-09-11T09:52:47.495Z,100910.94
2018-09-11T09:53:53.783Z,100903.52
2018-09-11T09:55:00.188Z,100907.20
2018-09-11T09:56:06.512Z,100908.31
2018-09-11T09:57:12.771Z,100897.38
2018-09-11T09:58:19.049Z,100895.62
2018-09-11T09:59:25.284Z,100903.40
2018-09-11T10:00:31.471Z,100908.42
2018-09-11T10:01:37.622Z,100906.67
2018-09-11T10:02:43.977Z,100895.59
2018-09-11T10:03:50.309Z,100900.89
2018-09-11T10:05:06.281Z,100880.91
2018-09-11T10:06:18.426Z,100891.56
2018-09-11T10:07:24.648Z,100890.29
2018-09-11T10:08:31.026Z,100892.20
2018-09-11T10:09:37.286Z,100896.14
2018-09-11T10:10:43.603Z,100896.77
2018-09-11T10:11:49.844Z,100888.52
2018-09-11T10:12:56.474Z,100891.74
2018-09-11T10:14:02.742Z,100889.02
2018-09-11T10:15:08.673Z,100896.92
2018-09-11T10:16:14.929Z,100895.94
2018-09-11T10:17:21.168Z,100901.52
2018-09-11T10:18:27.455Z,100891.22
2018-09-11T10:19:33.709Z,100888.67
2018-09-11T10:20:39.970Z,100890.66
2018-09-11T10:21:46.227Z,100891.22
2018-09-11T10:22:52.573Z,100880.98
2018-09-11T10:23:58.640Z,100886.01
2018-09-11T10:25:04.378Z,100888.24
2018-09-11T10:26:10.769Z,100888.91
2018-09-11T10:27:16.825Z,100888.23
2018-09-11T10:28:23.304Z,100893.87
2018-09-11T10:29:29.532Z,100885.48
2018-09-11T10:30:35.902Z,100892.55
2018-09-11T10:31:42.686Z,100892.75
2018-09-11T10:32:48.691Z,100894.80
2018-09-11T10:33:55.195Z,100892.94
2018-09-11T10:35:01.739Z,100890.05
2018-09-11T10:36:07.980Z,100888.50
2018-09-11T10:37:14.186Z,100891.45
2018-09-11T10:38:20.145Z,100893.08
2018-09-11T10:39:26.455Z,100889.97
2018-09-11T10:40:32.835Z,100900.63
2018-09-11T10:41:39.070Z,100896.91
2018-09-11T10:42:45.340Z,100889.25
2018-09-11T10:43:51.720Z,100891.09
2018-09-11T10:44:57.717Z,100885.29
2018-09-11T10:46:04.146Z,100883.75
2018-09-11T10:47:10.393Z,100885.39
2018-09-11T10:48:16.640Z,100886.31
2018-09-11T10:49:22.884Z,100884.25
2018-09-11T10:50:29.120Z,100886.83
2018-09-11T10:51:35.386Z,100885.35
2018-09-11T10:52:41.620Z,100883.67
2018-09-11T10:53:47.873Z,100885.39
2018-09-11T10:54:54.077Z,100884.27
2018-09-11T10:56:00.298Z,100875.48
2018-09-11T10:57:06.168Z,100883.67
2018-09-11T10:58:12.390Z,100889.78
2018-09-11T10:59:18.316Z,100882.98
2018-09-11T11:00:24.552Z,100880.05
2018-09-11T11:01:30.814Z,100876.41
2018-09-11T11:02:37.034Z,100880.55
2018-09-11T11:03:43.090Z,100877.39
2018-09-11T11:04:49.308Z,100881.00
2018-09-11T11:05:55.532Z,100886.90
2018-09-11T11:07:01.760Z,100890.87
2018-09-11T11:08:07.683Z,100887.91
2018-09-11T11:09:13.921Z,100888.99
2018-09-11T11:10:20.152Z,100869.22
2018-09-11T11:11:26.395Z,100878.62
2018-09-11T11:12:32.643Z,100877.77
2018-09-11T11:13:38.877Z,100876.63
2018-09-11T11:14:45.142Z,100882.35
2018-09-11T11:15:51.392Z,100880.28
2018-09-11T11:16:57.355Z,100882.24
2018-09-11T11:18:03.592Z,100881.37
2018-09-11T11:19:09.851Z,100882.34
2018-09-11T11:20:16.089Z,100873.81
2018-09-11T11:21:22.316Z,100874.36
2018-09-11T11:22:28.612Z,100879.62
2018-09-11T11:23:34.873Z,100880.80
2018-09-11T11:24:41.135Z,100867.67
2018-09-11T11:25:47.342Z,100875.86
2018-09-11T11:26:54.720Z,100877.11
2018-09-11T11:28:01.114Z,100871.14
2018-09-11T11:29:07.098Z,100868.52
2018-09-11T11:30:13.348Z,100861.36
2018-09-11T11:31:19.747Z,100865.27
2018-09-11T11:32:26.014Z,100862.46
2018-09-11T11:33:32.243Z,100870.80
2018-09-11T11:34:38.512Z,100866.83
2018-09-11T11:35:44.740Z,100872.07
2018-09-11T11:36:51.174Z,100866.94
2018-09-11T11:37:57.467Z,100866.36
2018-09-11T11:39:03.095Z,100874.83
2018-09-11T11:40:10.072Z,100864.14
2018-09-11T11:41:16.821Z,100876.12
2018-09-11T11:42:23.052Z,100874.84
2018-09-11T11:43:29.544Z,100879.00
2018-09-11T11:44:35.788Z,100885.58
2018-09-11T11:45:42.043Z,100885.34
2018-09-11T11:46:48.273Z,100880.48
2018-09-11T11:47:54.533Z,100885.50
2018-09-11T11:49:00.787Z,100887.28
2018-09-11T11:50:06.349Z,100877.40
2018-09-11T11:51:12.588Z,100883.02
2018-09-11T11:52:18.854Z,100880.84
2018-09-11T11:53:25.084Z,100883.92
2018-09-11T11:54:31.373Z,100876.40
2018-09-11T11:55:37.611Z,100881.12
2018-09-11T11:56:43.849Z,100886.11
2018-09-11T11:57:50.082Z,100881.16
2018-09-11T11:58:56.315Z,100877.56
2018-09-11T12:00:02.576Z,100881.66
2018-09-11T12:01:08.441Z,100878.97
2018-09-11T12:02:14.498Z,100876.11
2018-09-11T12:03:20.772Z,100877.45
2018-09-11T12:04:27.009Z,100876.60
2018-09-11T12:05:33.273Z,100873.91
2018-09-11T12:06:41.540Z,100878.38
2018-09-11T12:07:47.775Z,100880.38
2018-09-11T12:08:54.212Z,100881.00
2018-09-11T12:10:00.464Z,100879.47
2018-09-11T12:11:06.679Z,100878.55
2018-09-11T12:12:12.910Z,100882.28
2018-09-11T12:13:19.225Z,100889.55
2018-09-11T12:14:25.660Z,100885.57
2018-09-11T12:15:31.911Z,100875.73
2018-09-11T12:16:38.195Z,100875.33
2018-09-11T12:17:44.395Z,100879.77
2018-09-11T12:18:50.726Z,100867.63
2018-09-11T12:19:56.991Z,100865.79
2018-09-11T12:21:03.325Z,100872.37
2018-09-11T12:22:09.568Z,100861.51
2018-09-11T12:23:15.816Z,100870.45
2018-09-11T12:24:22.079Z,100861.59
2018-09-11T12:25:28.388Z,100857.61
2018-09-11T12:26:34.880Z,100868.22
2018-09-11T12:27:41.288Z,100865.88
2018-09-11T12:28:47.530Z,100860.55
2018-09-11T12:29:53.811Z,100855.27
2018-09-11T12:31:00.131Z,100852.96
2018-09-11T12:32:06.524Z,100872.19
2018-09-11T12:33:12.769Z,100853.97
2018-09-11T12:34:19.016Z,100851.94
2018-09-11T12:35:25.306Z,100855.41
2018-09-11T12:36:31.604Z,100856.19
2018-09-11T12:37:37.848Z,100855.28
2018-09-11T12:38:43.809Z,100848.55
2018-09-11T12:39:49.734Z,100846.29
2018-09-11T12:40:55.984Z,100860.28